sensor_id;sensor_type;location;lat;lon;timestamp;temperature;humidity
52245;DHT22;55759;51.586;-1.758;2023-11-19T00:01:32;10.90;87.60
52245;DHT22;55759;51.586;-1.758;2023-11-19T00:03:58;10.90;87.50
52245;DHT22;55759;51.586;-1.758;2023-11-19T00:06:23;10.90;87.60
52245;DHT22;55759;51.586;-1.758;2023-11-19T00:08:50;10.90;87.40
52245;DHT22;55759;51.586;-1.758;2023-11-19T00:11:16;11.00;87.40
52245;DHT22;55759;51.586;-1.758;2023-11-19T00:13:42;11.00;87.30
52245;DHT22;55759;51.586;-1.758;2023-11-19T00:16:08;11.00;87.50
52245;DHT22;55759;51.586;-1.758;2023-11-19T00:18:35;11.10;87.20
52245;DHT22;55759;51.586;-1.758;2023-11-19T00:21:01;11.20;87.10
52245;DHT22;55759;51.586;-1.758;2023-11-19T00:23:27;11.20;87.20
52245;DHT22;55759;51.586;-1.758;2023-11-19T00:25:53;11.30;87.10
52245;DHT22;55759;51.586;-1.758;2023-11-19T00:28:19;11.30;87.00
52245;DHT22;55759;51.586;-1.758;2023-11-19T00:30:44;11.40;87.00
52245;DHT22;55759;51.586;-1.758;2023-11-19T00:33:10;11.40;86.80
52245;DHT22;55759;51.586;-1.758;2023-11-19T00:35:35;11.40;86.40
52245;DHT22;55759;51.586;-1.758;2023-11-19T00:38:01;11.40;86.50
52245;DHT22;55759;51.586;-1.758;2023-11-19T00:40:28;11.20;86.70
52245;DHT22;55759;51.586;-1.758;2023-11-19T00:42:53;11.20;86.90
52245;DHT22;55759;51.586;-1.758;2023-11-19T00:45:19;11.10;87.00
52245;DHT22;55759;51.586;-1.758;2023-11-19T00:47:45;11.10;87.20
52245;DHT22;55759;51.586;-1.758;2023-11-19T00:50:10;11.00;87.30
52245;DHT22;55759;51.586;-1.758;2023-11-19T00:52:37;10.90;87.40
52245;DHT22;55759;51.586;-1.758;2023-11-19T00:55:03;10.90;87.50
52245;DHT22;55759;51.586;-1.758;2023-11-19T00:57:30;10.80;87.70
52245;DHT22;55759;51.586;-1.758;2023-11-19T00:59:55;10.80;87.60
52245;DHT22;55759;51.586;-1.758;2023-11-19T01:02:21;10.80;87.60
52245;DHT22;55759;51.586;-1.758;2023-11-19T01:04:46;10.80;87.70
52245;DHT22;55759;51.586;-1.758;2023-11-19T01:07:12;10.80;87.80
52245;DHT22;55759;51.586;-1.758;2023-11-19T01:09:38;10.90;87.60
52245;DHT22;55759;51.586;-1.758;2023-11-19T01:12:04;10.90;87.50
52245;DHT22;55759;51.586;-1.758;2023-11-19T01:14:30;10.90;87.40
52245;DHT22;55759;51.586;-1.758;2023-11-19T01:16:55;10.90;87.40
52245;DHT22;55759;51.586;-1.758;2023-11-19T01:19:21;10.80;87.50
52245;DHT22;55759;51.586;-1.758;2023-11-19T01:21:47;10.80;87.50
52245;DHT22;55759;51.586;-1.758;2023-11-19T01:24:13;10.80;87.60
52245;DHT22;55759;51.586;-1.758;2023-11-19T01:26:39;10.80;87.60
52245;DHT22;55759;51.586;-1.758;2023-11-19T01:29:16;10.70;87.60
52245;DHT22;55759;51.586;-1.758;2023-11-19T01:31:42;10.70;87.50
52245;DHT22;55759;51.586;-1.758;2023-11-19T01:34:08;10.70;87.60
52245;DHT22;55759;51.586;-1.758;2023-11-19T01:36:33;10.70;87.50
52245;DHT22;55759;51.586;-1.758;2023-11-19T01:38:59;10.70;87.50
52245;DHT22;55759;51.586;-1.758;2023-11-19T01:41:25;10.80;87.40
52245;DHT22;55759;51.586;-1.758;2023-11-19T01:43:50;10.80;87.20
52245;DHT22;55759;51.586;-1.758;2023-11-19T01:46:16;10.80;87.10
52245;DHT22;55759;51.586;-1.758;2023-11-19T01:48:42;10.80;87.10
52245;DHT22;55759;51.586;-1.758;2023-11-19T01:51:08;10.70;87.20
52245;DHT22;55759;51.586;-1.758;2023-11-19T01:53:35;10.70;87.30
52245;DHT22;55759;51.586;-1.758;2023-11-19T01:56:02;10.70;87.20
52245;DHT22;55759;51.586;-1.758;2023-11-19T01:58:28;10.70;87.20
52245;DHT22;55759;51.586;-1.758;2023-11-19T02:00:55;10.70;87.20
52245;DHT22;55759;51.586;-1.758;2023-11-19T02:03:21;10.70;87.20
52245;DHT22;55759;51.586;-1.758;2023-11-19T02:05:47;10.70;87.00
52245;DHT22;55759;51.586;-1.758;2023-11-19T02:08:14;10.80;87.00
52245;DHT22;55759;51.586;-1.758;2023-11-19T02:10:39;10.80;87.00
52245;DHT22;55759;51.586;-1.758;2023-11-19T02:13:05;10.70;86.90
52245;DHT22;55759;51.586;-1.758;2023-11-19T02:15:32;10.70;87.00
52245;DHT22;55759;51.586;-1.758;2023-11-19T02:18:16;10.80;87.00
52245;DHT22;55759;51.586;-1.758;2023-11-19T02:20:42;10.90;86.70
52245;DHT22;55759;51.586;-1.758;2023-11-19T02:23:07;10.90;86.50
52245;DHT22;55759;51.586;-1.758;2023-11-19T02:25:33;10.90;86.40
52245;DHT22;55759;51.586;-1.758;2023-11-19T02:27:59;10.90;86.50
52245;DHT22;55759;51.586;-1.758;2023-11-19T02:30:25;10.90;86.30
52245;DHT22;55759;51.586;-1.758;2023-11-19T02:33:00;11.00;86.20
52245;DHT22;55759;51.586;-1.758;2023-11-19T02:35:31;10.90;86.00
52245;DHT22;55759;51.586;-1.758;2023-11-19T02:37:57;10.90;86.00
52245;DHT22;55759;51.586;-1.758;2023-11-19T02:40:25;10.90;86.10
52245;DHT22;55759;51.586;-1.758;2023-11-19T02:42:51;10.80;86.20
52245;DHT22;55759;51.586;-1.758;2023-11-19T02:45:18;10.80;86.00
52245;DHT22;55759;51.586;-1.758;2023-11-19T02:47:43;10.80;86.20
52245;DHT22;55759;51.586;-1.758;2023-11-19T02:50:10;10.80;86.20
52245;DHT22;55759;51.586;-1.758;2023-11-19T02:52:41;10.70;86.40
52245;DHT22;55759;51.586;-1.758;2023-11-19T02:55:08;10.80;86.10
52245;DHT22;55759;51.586;-1.758;2023-11-19T02:57:41;10.80;86.30
52245;DHT22;55759;51.586;-1.758;2023-11-19T03:00:14;10.80;86.30
52245;DHT22;55759;51.586;-1.758;2023-11-19T03:02:40;10.80;86.10
52245;DHT22;55759;51.586;-1.758;2023-11-19T03:05:14;10.80;86.10
52245;DHT22;55759;51.586;-1.758;2023-11-19T03:07:42;10.70;86.10
52245;DHT22;55759;51.586;-1.758;2023-11-19T03:10:11;10.80;86.30
52245;DHT22;55759;51.586;-1.758;2023-11-19T03:12:40;10.70;86.30
52245;DHT22;55759;51.586;-1.758;2023-11-19T03:15:06;10.70;86.10
52245;DHT22;55759;51.586;-1.758;2023-11-19T03:17:32;10.70;86.50
52245;DHT22;55759;51.586;-1.758;2023-11-19T03:19:59;10.70;86.30
52245;DHT22;55759;51.586;-1.758;2023-11-19T03:22:26;10.70;86.20
52245;DHT22;55759;51.586;-1.758;2023-11-19T03:24:51;10.80;86.20
52245;DHT22;55759;51.586;-1.758;2023-11-19T03:27:17;10.80;86.00
52245;DHT22;55759;51.586;-1.758;2023-11-19T03:29:43;10.90;85.50
52245;DHT22;55759;51.586;-1.758;2023-11-19T03:32:08;10.80;85.40
52245;DHT22;55759;51.586;-1.758;2023-11-19T03:34:34;10.70;85.40
52245;DHT22;55759;51.586;-1.758;2023-11-19T03:36:59;10.70;85.50
52245;DHT22;55759;51.586;-1.758;2023-11-19T03:39:25;10.60;85.70
52245;DHT22;55759;51.586;-1.758;2023-11-19T03:41:52;10.60;85.60
52245;DHT22;55759;51.586;-1.758;2023-11-19T03:44:17;10.60;85.70
52245;DHT22;55759;51.586;-1.758;2023-11-19T03:46:44;10.60;85.70
52245;DHT22;55759;51.586;-1.758;2023-11-19T03:49:09;10.60;85.60
52245;DHT22;55759;51.586;-1.758;2023-11-19T03:51:35;10.60;85.60
52245;DHT22;55759;51.586;-1.758;2023-11-19T03:54:01;10.60;85.90
52245;DHT22;55759;51.586;-1.758;2023-11-19T03:56:26;10.60;85.80
52245;DHT22;55759;51.586;-1.758;2023-11-19T03:58:52;10.70;85.60
52245;DHT22;55759;51.586;-1.758;2023-11-19T04:01:18;10.80;85.50
52245;DHT22;55759;51.586;-1.758;2023-11-19T04:03:43;10.80;85.20
52245;DHT22;55759;51.586;-1.758;2023-11-19T04:06:09;10.90;85.30
52245;DHT22;55759;51.586;-1.758;2023-11-19T04:08:35;10.90;85.40
52245;DHT22;55759;51.586;-1.758;2023-11-19T04:11:02;11.00;85.10
52245;DHT22;55759;51.586;-1.758;2023-11-19T04:13:28;11.00;85.00
52245;DHT22;55759;51.586;-1.758;2023-11-19T04:15:53;11.00;85.10
52245;DHT22;55759;51.586;-1.758;2023-11-19T04:18:19;11.00;85.00
52245;DHT22;55759;51.586;-1.758;2023-11-19T04:20:44;11.10;84.90
52245;DHT22;55759;51.586;-1.758;2023-11-19T04:23:10;11.10;84.80
52245;DHT22;55759;51.586;-1.758;2023-11-19T04:25:36;11.10;85.00
52245;DHT22;55759;51.586;-1.758;2023-11-19T04:28:02;11.10;85.10
52245;DHT22;55759;51.586;-1.758;2023-11-19T04:30:28;11.20;84.70
52245;DHT22;55759;51.586;-1.758;2023-11-19T04:32:53;11.10;85.20
52245;DHT22;55759;51.586;-1.758;2023-11-19T04:35:19;10.90;86.10
52245;DHT22;55759;51.586;-1.758;2023-11-19T04:37:44;10.80;87.00
52245;DHT22;55759;51.586;-1.758;2023-11-19T04:40:10;10.70;87.80
52245;DHT22;55759;51.586;-1.758;2023-11-19T04:42:40;10.50;88.20
52245;DHT22;55759;51.586;-1.758;2023-11-19T04:45:06;10.50;88.40
52245;DHT22;55759;51.586;-1.758;2023-11-19T04:47:32;10.40;88.80
52245;DHT22;55759;51.586;-1.758;2023-11-19T04:49:58;10.40;89.20
52245;DHT22;55759;51.586;-1.758;2023-11-19T04:52:23;10.30;89.40
52245;DHT22;55759;51.586;-1.758;2023-11-19T04:54:49;10.20;89.60
52245;DHT22;55759;51.586;-1.758;2023-11-19T04:57:15;10.10;89.90
52245;DHT22;55759;51.586;-1.758;2023-11-19T04:59:40;10.10;90.30
52245;DHT22;55759;51.586;-1.758;2023-11-19T05:02:06;10.10;90.40
52245;DHT22;55759;51.586;-1.758;2023-11-19T05:04:33;10.20;90.40
52245;DHT22;55759;51.586;-1.758;2023-11-19T05:06:58;10.20;90.30
52245;DHT22;55759;51.586;-1.758;2023-11-19T05:09:24;10.20;90.10
52245;DHT22;55759;51.586;-1.758;2023-11-19T05:11:50;10.20;90.00
52245;DHT22;55759;51.586;-1.758;2023-11-19T05:14:15;10.20;90.00
52245;DHT22;55759;51.586;-1.758;2023-11-19T05:16:41;10.20;90.00
52245;DHT22;55759;51.586;-1.758;2023-11-19T05:19:08;10.20;90.00
52245;DHT22;55759;51.586;-1.758;2023-11-19T05:21:34;10.20;89.70
52245;DHT22;55759;51.586;-1.758;2023-11-19T05:24:04;10.20;89.60
52245;DHT22;55759;51.586;-1.758;2023-11-19T05:26:30;10.10;89.80
52245;DHT22;55759;51.586;-1.758;2023-11-19T05:28:55;10.10;90.10
52245;DHT22;55759;51.586;-1.758;2023-11-19T05:31:21;10.10;90.20
52245;DHT22;55759;51.586;-1.758;2023-11-19T05:33:47;10.10;90.30
52245;DHT22;55759;51.586;-1.758;2023-11-19T05:36:12;10.10;90.60
52245;DHT22;55759;51.586;-1.758;2023-11-19T05:38:38;10.10;90.60
52245;DHT22;55759;51.586;-1.758;2023-11-19T05:41:04;10.00;90.60
52245;DHT22;55759;51.586;-1.758;2023-11-19T05:43:30;10.00;90.70
52245;DHT22;55759;51.586;-1.758;2023-11-19T05:45:56;9.90;90.90
52245;DHT22;55759;51.586;-1.758;2023-11-19T05:48:21;9.90;91.00
52245;DHT22;55759;51.586;-1.758;2023-11-19T05:50:48;9.90;91.10
52245;DHT22;55759;51.586;-1.758;2023-11-19T05:53:17;9.90;91.20
52245;DHT22;55759;51.586;-1.758;2023-11-19T05:55:43;9.90;91.40
52245;DHT22;55759;51.586;-1.758;2023-11-19T05:58:14;9.90;91.40
52245;DHT22;55759;51.586;-1.758;2023-11-19T06:00:40;10.00;91.20
52245;DHT22;55759;51.586;-1.758;2023-11-19T06:03:08;10.00;91.10
52245;DHT22;55759;51.586;-1.758;2023-11-19T06:05:33;10.00;90.80
52245;DHT22;55759;51.586;-1.758;2023-11-19T06:07:59;10.00;90.60
52245;DHT22;55759;51.586;-1.758;2023-11-19T06:10:25;9.90;90.60
52245;DHT22;55759;51.586;-1.758;2023-11-19T06:12:59;9.90;90.50
52245;DHT22;55759;51.586;-1.758;2023-11-19T06:15:28;9.90;90.40
52245;DHT22;55759;51.586;-1.758;2023-11-19T06:17:53;9.80;90.50
52245;DHT22;55759;51.586;-1.758;2023-11-19T06:20:20;9.80;90.40
52245;DHT22;55759;51.586;-1.758;2023-11-19T06:22:46;9.80;90.20
52245;DHT22;55759;51.586;-1.758;2023-11-19T06:25:12;9.80;90.00
52245;DHT22;55759;51.586;-1.758;2023-11-19T06:27:42;9.90;90.00
52245;DHT22;55759;51.586;-1.758;2023-11-19T06:30:08;9.80;89.80
52245;DHT22;55759;51.586;-1.758;2023-11-19T06:32:35;9.80;89.80
52245;DHT22;55759;51.586;-1.758;2023-11-19T06:35:00;9.90;89.60
52245;DHT22;55759;51.586;-1.758;2023-11-19T06:37:26;9.90;89.70
52245;DHT22;55759;51.586;-1.758;2023-11-19T06:39:52;10.00;89.70
52245;DHT22;55759;51.586;-1.758;2023-11-19T06:42:18;10.10;89.50
52245;DHT22;55759;51.586;-1.758;2023-11-19T06:44:43;10.20;89.40
52245;DHT22;55759;51.586;-1.758;2023-11-19T06:47:09;10.20;89.40
52245;DHT22;55759;51.586;-1.758;2023-11-19T06:49:34;10.20;89.00
52245;DHT22;55759;51.586;-1.758;2023-11-19T06:52:00;10.30;88.90
52245;DHT22;55759;51.586;-1.758;2023-11-19T06:54:25;10.40;88.20
52245;DHT22;55759;51.586;-1.758;2023-11-19T06:56:51;10.50;87.80
52245;DHT22;55759;51.586;-1.758;2023-11-19T06:59:16;10.50;87.30
52245;DHT22;55759;51.586;-1.758;2023-11-19T07:01:42;10.60;86.90
52245;DHT22;55759;51.586;-1.758;2023-11-19T07:04:12;10.50;87.40
52245;DHT22;55759;51.586;-1.758;2023-11-19T07:06:37;10.50;87.40
52245;DHT22;55759;51.586;-1.758;2023-11-19T07:09:04;10.50;87.90
52245;DHT22;55759;51.586;-1.758;2023-11-19T07:11:41;10.40;88.50
52245;DHT22;55759;51.586;-1.758;2023-11-19T07:14:07;10.30;88.70
52245;DHT22;55759;51.586;-1.758;2023-11-19T07:16:33;10.30;89.20
52245;DHT22;55759;51.586;-1.758;2023-11-19T07:19:05;10.30;89.50
52245;DHT22;55759;51.586;-1.758;2023-11-19T07:21:31;10.20;89.70
52245;DHT22;55759;51.586;-1.758;2023-11-19T07:23:56;10.10;89.90
52245;DHT22;55759;51.586;-1.758;2023-11-19T07:26:22;10.00;90.00
52245;DHT22;55759;51.586;-1.758;2023-11-19T07:28:48;9.90;90.10
52245;DHT22;55759;51.586;-1.758;2023-11-19T07:31:13;9.90;90.30
52245;DHT22;55759;51.586;-1.758;2023-11-19T07:33:39;9.90;90.20
52245;DHT22;55759;51.586;-1.758;2023-11-19T07:36:05;9.80;90.30
52245;DHT22;55759;51.586;-1.758;2023-11-19T07:38:31;9.80;90.40
52245;DHT22;55759;51.586;-1.758;2023-11-19T07:40:56;9.80;90.40
52245;DHT22;55759;51.586;-1.758;2023-11-19T07:43:22;9.80;90.50
52245;DHT22;55759;51.586;-1.758;2023-11-19T07:45:47;9.90;90.40
52245;DHT22;55759;51.586;-1.758;2023-11-19T07:48:13;9.90;90.20
52245;DHT22;55759;51.586;-1.758;2023-11-19T07:50:39;10.00;90.10
52245;DHT22;55759;51.586;-1.758;2023-11-19T07:53:08;10.10;90.00
52245;DHT22;55759;51.586;-1.758;2023-11-19T07:55:34;10.10;89.90
52245;DHT22;55759;51.586;-1.758;2023-11-19T07:58:00;10.20;89.80
52245;DHT22;55759;51.586;-1.758;2023-11-19T08:00:26;10.30;89.50
52245;DHT22;55759;51.586;-1.758;2023-11-19T08:02:52;10.30;89.30
52245;DHT22;55759;51.586;-1.758;2023-11-19T08:05:17;10.40;89.40
52245;DHT22;55759;51.586;-1.758;2023-11-19T08:07:43;10.40;89.50
52245;DHT22;55759;51.586;-1.758;2023-11-19T08:10:08;10.40;89.60
52245;DHT22;55759;51.586;-1.758;2023-11-19T08:12:37;10.40;89.80
52245;DHT22;55759;51.586;-1.758;2023-11-19T08:15:03;10.40;89.90
52245;DHT22;55759;51.586;-1.758;2023-11-19T08:17:30;10.50;90.00
52245;DHT22;55759;51.586;-1.758;2023-11-19T08:19:55;10.40;90.00
52245;DHT22;55759;51.586;-1.758;2023-11-19T08:22:21;10.50;89.90
52245;DHT22;55759;51.586;-1.758;2023-11-19T08:24:48;10.50;90.00
52245;DHT22;55759;51.586;-1.758;2023-11-19T08:27:13;10.50;90.00
52245;DHT22;55759;51.586;-1.758;2023-11-19T08:29:39;10.40;89.90
52245;DHT22;55759;51.586;-1.758;2023-11-19T08:32:05;10.30;90.10
52245;DHT22;55759;51.586;-1.758;2023-11-19T08:34:31;10.40;90.30
52245;DHT22;55759;51.586;-1.758;2023-11-19T08:36:57;10.30;90.50
52245;DHT22;55759;51.586;-1.758;2023-11-19T08:39:22;10.30;90.60
52245;DHT22;55759;51.586;-1.758;2023-11-19T08:41:48;10.30;90.70
52245;DHT22;55759;51.586;-1.758;2023-11-19T08:44:14;10.20;90.80
52245;DHT22;55759;51.586;-1.758;2023-11-19T08:46:45;10.30;90.90
52245;DHT22;55759;51.586;-1.758;2023-11-19T08:49:11;10.30;90.80
52245;DHT22;55759;51.586;-1.758;2023-11-19T08:51:36;10.30;90.70
52245;DHT22;55759;51.586;-1.758;2023-11-19T08:54:02;10.40;90.50
52245;DHT22;55759;51.586;-1.758;2023-11-19T08:56:28;10.40;90.30
52245;DHT22;55759;51.586;-1.758;2023-11-19T08:58:58;10.50;90.20
52245;DHT22;55759;51.586;-1.758;2023-11-19T09:01:23;10.70;90.00
52245;DHT22;55759;51.586;-1.758;2023-11-19T09:03:50;10.70;89.50
52245;DHT22;55759;51.586;-1.758;2023-11-19T09:06:15;10.80;89.10
52245;DHT22;55759;51.586;-1.758;2023-11-19T09:08:42;11.10;88.80
52245;DHT22;55759;51.586;-1.758;2023-11-19T09:11:07;11.20;88.30
52245;DHT22;55759;51.586;-1.758;2023-11-19T09:13:34;11.30;87.50
52245;DHT22;55759;51.586;-1.758;2023-11-19T09:16:00;11.40;87.10
52245;DHT22;55759;51.586;-1.758;2023-11-19T09:18:29;11.40;87.00
52245;DHT22;55759;51.586;-1.758;2023-11-19T09:20:54;11.40;87.00
52245;DHT22;55759;51.586;-1.758;2023-11-19T09:23:20;11.40;87.40
52245;DHT22;55759;51.586;-1.758;2023-11-19T09:25:45;11.40;87.40
52245;DHT22;55759;51.586;-1.758;2023-11-19T09:28:11;11.50;87.20
52245;DHT22;55759;51.586;-1.758;2023-11-19T09:30:36;11.80;86.30
52245;DHT22;55759;51.586;-1.758;2023-11-19T09:33:02;12.00;85.40
52245;DHT22;55759;51.586;-1.758;2023-11-19T09:35:28;12.10;84.80
52245;DHT22;55759;51.586;-1.758;2023-11-19T09:37:53;12.20;84.60
52245;DHT22;55759;51.586;-1.758;2023-11-19T09:40:19;12.20;84.30
52245;DHT22;55759;51.586;-1.758;2023-11-19T09:42:46;12.20;84.10
52245;DHT22;55759;51.586;-1.758;2023-11-19T09:45:13;12.10;84.40
52245;DHT22;55759;51.586;-1.758;2023-11-19T09:47:40;12.10;84.30
52245;DHT22;55759;51.586;-1.758;2023-11-19T09:50:06;12.10;84.40
52245;DHT22;55759;51.586;-1.758;2023-11-19T09:52:32;12.10;84.30
52245;DHT22;55759;51.586;-1.758;2023-11-19T09:54:58;12.10;84.70
52245;DHT22;55759;51.586;-1.758;2023-11-19T09:57:23;12.20;83.90
52245;DHT22;55759;51.586;-1.758;2023-11-19T09:59:49;12.30;83.50
52245;DHT22;55759;51.586;-1.758;2023-11-19T10:02:15;12.40;83.40
52245;DHT22;55759;51.586;-1.758;2023-11-19T10:04:42;12.40;83.10
52245;DHT22;55759;51.586;-1.758;2023-11-19T10:07:09;12.40;82.90
52245;DHT22;55759;51.586;-1.758;2023-11-19T10:09:34;12.50;82.20
52245;DHT22;55759;51.586;-1.758;2023-11-19T10:12:00;12.60;82.00
52245;DHT22;55759;51.586;-1.758;2023-11-19T10:14:27;12.60;81.90
52245;DHT22;55759;51.586;-1.758;2023-11-19T10:16:54;12.70;81.20
52245;DHT22;55759;51.586;-1.758;2023-11-19T10:19:20;12.70;81.30
52245;DHT22;55759;51.586;-1.758;2023-11-19T10:21:46;12.70;81.30
52245;DHT22;55759;51.586;-1.758;2023-11-19T10:24:12;12.60;81.60
52245;DHT22;55759;51.586;-1.758;2023-11-19T10:26:37;12.60;81.60
52245;DHT22;55759;51.586;-1.758;2023-11-19T10:29:03;12.60;81.80
52245;DHT22;55759;51.586;-1.758;2023-11-19T10:31:29;12.80;81.50
52245;DHT22;55759;51.586;-1.758;2023-11-19T10:33:55;12.80;81.10
52245;DHT22;55759;51.586;-1.758;2023-11-19T10:36:21;12.90;81.00
52245;DHT22;55759;51.586;-1.758;2023-11-19T10:38:55;12.90;80.80
52245;DHT22;55759;51.586;-1.758;2023-11-19T10:41:28;13.00;80.70
52245;DHT22;55759;51.586;-1.758;2023-11-19T10:43:53;13.10;80.70
52245;DHT22;55759;51.586;-1.758;2023-11-19T10:46:19;13.20;80.40
52245;DHT22;55759;51.586;-1.758;2023-11-19T10:48:48;13.40;80.00
52245;DHT22;55759;51.586;-1.758;2023-11-19T10:51:14;13.50;79.90
52245;DHT22;55759;51.586;-1.758;2023-11-19T10:53:46;13.50;79.90
52245;DHT22;55759;51.586;-1.758;2023-11-19T10:56:14;13.50;79.60
52245;DHT22;55759;51.586;-1.758;2023-11-19T10:58:44;13.50;79.70
52245;DHT22;55759;51.586;-1.758;2023-11-19T11:01:16;13.40;80.30
52245;DHT22;55759;51.586;-1.758;2023-11-19T11:03:43;13.10;81.50
52245;DHT22;55759;51.586;-1.758;2023-11-19T11:06:11;12.80;82.90
52245;DHT22;55759;51.586;-1.758;2023-11-19T11:08:38;12.60;84.00
52245;DHT22;55759;51.586;-1.758;2023-11-19T11:11:04;12.50;84.70
52245;DHT22;55759;51.586;-1.758;2023-11-19T11:13:31;12.40;84.50
52245;DHT22;55759;51.586;-1.758;2023-11-19T11:15:57;12.40;84.40
52245;DHT22;55759;51.586;-1.758;2023-11-19T11:18:26;12.40;84.40
52245;DHT22;55759;51.586;-1.758;2023-11-19T11:20:52;12.40;84.60
52245;DHT22;55759;51.586;-1.758;2023-11-19T11:25:59;12.30;84.90
52245;DHT22;55759;51.586;-1.758;2023-11-19T11:28:38;12.40;84.80
52245;DHT22;55759;51.586;-1.758;2023-11-19T11:34:02;12.60;84.00
52245;DHT22;55759;51.586;-1.758;2023-11-19T11:36:31;12.70;83.40
52245;DHT22;55759;51.586;-1.758;2023-11-19T11:38:59;12.70;83.70
52245;DHT22;55759;51.586;-1.758;2023-11-19T11:41:26;12.60;84.40
52245;DHT22;55759;51.586;-1.758;2023-11-19T11:43:54;12.50;84.90
52245;DHT22;55759;51.586;-1.758;2023-11-19T11:48:57;12.30;85.90
52245;DHT22;55759;51.586;-1.758;2023-11-19T11:54:09;12.10;87.00
52245;DHT22;55759;51.586;-1.758;2023-11-19T11:56:38;12.10;87.70
52245;DHT22;55759;51.586;-1.758;2023-11-19T11:59:19;12.10;87.90
52245;DHT22;55759;51.586;-1.758;2023-11-19T12:02:00;12.10;88.10
52245;DHT22;55759;51.586;-1.758;2023-11-19T12:04:26;12.10;88.40
52245;DHT22;55759;51.586;-1.758;2023-11-19T12:09:36;12.20;89.00
52245;DHT22;55759;51.586;-1.758;2023-11-19T12:20:07;12.70;88.20
52245;DHT22;55759;51.586;-1.758;2023-11-19T12:22:39;12.70;88.10
52245;DHT22;55759;51.586;-1.758;2023-11-19T12:25:06;12.70;88.10
52245;DHT22;55759;51.586;-1.758;2023-11-19T12:27:32;12.70;88.20
52245;DHT22;55759;51.586;-1.758;2023-11-19T12:29:59;12.70;88.40
52245;DHT22;55759;51.586;-1.758;2023-11-19T12:32:36;12.60;88.40
52245;DHT22;55759;51.586;-1.758;2023-11-19T12:35:02;12.60;88.70
52245;DHT22;55759;51.586;-1.758;2023-11-19T12:37:28;12.40;88.80
52245;DHT22;55759;51.586;-1.758;2023-11-19T12:39:57;12.40;89.20
52245;DHT22;55759;51.586;-1.758;2023-11-19T12:42:34;12.30;89.70
52245;DHT22;55759;51.586;-1.758;2023-11-19T12:45:00;12.30;90.00
52245;DHT22;55759;51.586;-1.758;2023-11-19T12:47:25;12.30;90.20
52245;DHT22;55759;51.586;-1.758;2023-11-19T12:49:57;12.30;90.10
52245;DHT22;55759;51.586;-1.758;2023-11-19T12:52:23;12.30;90.30
52245;DHT22;55759;51.586;-1.758;2023-11-19T12:54:49;12.30;90.60
52245;DHT22;55759;51.586;-1.758;2023-11-19T12:57:14;12.40;90.70
52245;DHT22;55759;51.586;-1.758;2023-11-19T12:59:40;12.40;90.40
52245;DHT22;55759;51.586;-1.758;2023-11-19T13:02:06;12.50;90.50
52245;DHT22;55759;51.586;-1.758;2023-11-19T13:04:32;12.60;90.30
52245;DHT22;55759;51.586;-1.758;2023-11-19T13:07:01;12.60;89.90
52245;DHT22;55759;51.586;-1.758;2023-11-19T13:09:29;12.40;90.00
52245;DHT22;55759;51.586;-1.758;2023-11-19T13:11:55;12.30;90.10
52245;DHT22;55759;51.586;-1.758;2023-11-19T13:14:21;12.20;90.30
52245;DHT22;55759;51.586;-1.758;2023-11-19T13:16:47;12.10;90.60
52245;DHT22;55759;51.586;-1.758;2023-11-19T13:19:13;12.10;90.90
52245;DHT22;55759;51.586;-1.758;2023-11-19T13:21:39;12.10;91.10
52245;DHT22;55759;51.586;-1.758;2023-11-19T13:24:06;12.10;91.00
52245;DHT22;55759;51.586;-1.758;2023-11-19T13:26:31;12.10;90.90
52245;DHT22;55759;51.586;-1.758;2023-11-19T13:28:57;12.10;91.10
52245;DHT22;55759;51.586;-1.758;2023-11-19T13:31:22;12.10;91.20
52245;DHT22;55759;51.586;-1.758;2023-11-19T13:33:48;12.20;91.00
52245;DHT22;55759;51.586;-1.758;2023-11-19T13:36:14;12.20;90.90
52245;DHT22;55759;51.586;-1.758;2023-11-19T13:38:39;12.10;90.50
52245;DHT22;55759;51.586;-1.758;2023-11-19T13:41:07;12.10;90.60
52245;DHT22;55759;51.586;-1.758;2023-11-19T13:43:35;12.10;90.80
52245;DHT22;55759;51.586;-1.758;2023-11-19T13:46:03;12.20;91.10
52245;DHT22;55759;51.586;-1.758;2023-11-19T13:48:29;12.20;90.70
52245;DHT22;55759;51.586;-1.758;2023-11-19T13:50:54;12.10;90.30
52245;DHT22;55759;51.586;-1.758;2023-11-19T13:53:20;12.10;90.20
52245;DHT22;55759;51.586;-1.758;2023-11-19T13:55:46;12.10;90.40
52245;DHT22;55759;51.586;-1.758;2023-11-19T13:58:11;12.10;90.60
52245;DHT22;55759;51.586;-1.758;2023-11-19T14:00:37;12.10;90.40
52245;DHT22;55759;51.586;-1.758;2023-11-19T14:03:03;12.10;90.40
52245;DHT22;55759;51.586;-1.758;2023-11-19T14:05:28;12.10;90.60
52245;DHT22;55759;51.586;-1.758;2023-11-19T14:07:54;12.20;90.60
52245;DHT22;55759;51.586;-1.758;2023-11-19T14:10:22;12.20;90.30
52245;DHT22;55759;51.586;-1.758;2023-11-19T14:12:48;12.20;89.70
52245;DHT22;55759;51.586;-1.758;2023-11-19T14:15:15;12.20;89.40
52245;DHT22;55759;51.586;-1.758;2023-11-19T14:17:42;12.20;89.40
52245;DHT22;55759;51.586;-1.758;2023-11-19T14:20:08;12.40;89.40
52245;DHT22;55759;51.586;-1.758;2023-11-19T14:22:44;12.40;88.90
52245;DHT22;55759;51.586;-1.758;2023-11-19T14:25:10;12.50;88.90
52245;DHT22;55759;51.586;-1.758;2023-11-19T14:27:37;12.40;88.70
52245;DHT22;55759;51.586;-1.758;2023-11-19T14:30:06;12.40;89.00
52245;DHT22;55759;51.586;-1.758;2023-11-19T14:32:32;12.40;89.20
52245;DHT22;55759;51.586;-1.758;2023-11-19T14:34:57;12.30;89.20
52245;DHT22;55759;51.586;-1.758;2023-11-19T14:37:23;12.40;88.90
52245;DHT22;55759;51.586;-1.758;2023-11-19T14:39:48;12.40;88.70
52245;DHT22;55759;51.586;-1.758;2023-11-19T14:42:16;12.40;89.10
52245;DHT22;55759;51.586;-1.758;2023-11-19T14:44:42;12.50;88.70
52245;DHT22;55759;51.586;-1.758;2023-11-19T14:47:07;12.50;87.90
52245;DHT22;55759;51.586;-1.758;2023-11-19T14:49:36;12.60;87.40
52245;DHT22;55759;51.586;-1.758;2023-11-19T14:52:03;12.60;86.30
52245;DHT22;55759;51.586;-1.758;2023-11-19T14:54:28;12.60;86.70
52245;DHT22;55759;51.586;-1.758;2023-11-19T14:56:54;12.50;87.70
52245;DHT22;55759;51.586;-1.758;2023-11-19T14:59:19;12.40;87.80
52245;DHT22;55759;51.586;-1.758;2023-11-19T15:01:47;12.40;87.70
52245;DHT22;55759;51.586;-1.758;2023-11-19T15:04:12;12.30;87.70
52245;DHT22;55759;51.586;-1.758;2023-11-19T15:06:38;12.30;87.80
52245;DHT22;55759;51.586;-1.758;2023-11-19T15:09:06;12.20;87.80
52245;DHT22;55759;51.586;-1.758;2023-11-19T15:11:33;12.30;87.60
52245;DHT22;55759;51.586;-1.758;2023-11-19T15:13:58;12.20;87.10
52245;DHT22;55759;51.586;-1.758;2023-11-19T15:16:25;12.20;87.10
52245;DHT22;55759;51.586;-1.758;2023-11-19T15:18:59;12.20;87.20
52245;DHT22;55759;51.586;-1.758;2023-11-19T15:21:25;12.20;87.30
52245;DHT22;55759;51.586;-1.758;2023-11-19T15:23:51;12.20;87.30
52245;DHT22;55759;51.586;-1.758;2023-11-19T15:26:17;12.10;87.40
52245;DHT22;55759;51.586;-1.758;2023-11-19T15:28:43;12.10;87.30
52245;DHT22;55759;51.586;-1.758;2023-11-19T15:31:08;12.10;86.90
52245;DHT22;55759;51.586;-1.758;2023-11-19T15:33:37;12.10;87.00
52245;DHT22;55759;51.586;-1.758;2023-11-19T15:36:05;12.10;87.10